createdAt,value
2019-05-25T00:00:41.219Z,1.40
2019-05-25T00:03:14.516Z,1.22
2019-05-25T00:05:47.968Z,1.22
2019-05-25T00:08:21.235Z,1.30
2019-05-25T00:10:54.633Z,1.07
2019-05-25T00:13:27.935Z,1.02
2019-05-25T00:16:01.591Z,1.35
2019-05-25T00:18:34.907Z,1.17
2019-05-25T00:21:08.244Z,1.22
2019-05-25T00:23:41.567Z,1.15
2019-05-25T00:26:14.907Z,1.17
2019-05-25T00:28:48.227Z,1.30
2019-05-25T00:31:21.645Z,1.25
2019-05-25T00:33:54.952Z,1.20
2019-05-25T00:36:28.358Z,1.65
2019-05-25T00:39:01.660Z,1.20
2019-05-25T00:41:36.238Z,1.22
2019-05-25T00:44:09.576Z,0.98
2019-05-25T00:46:42.943Z,1.17
2019-05-25T00:49:16.244Z,1.10
2019-05-25T00:51:49.534Z,0.98
2019-05-25T00:54:28.016Z,1.32
2019-05-25T00:56:58.987Z,1.30
2019-05-25T00:59:32.416Z,0.90
2019-05-25T01:02:05.758Z,1.30
2019-05-25T01:04:39.052Z,1.20
2019-05-25T01:07:12.405Z,1.10
2019-05-25T01:09:45.715Z,1.00
2019-05-25T01:12:19.069Z,1.02
2019-05-25T01:14:52.543Z,1.10
2019-05-25T01:17:26.036Z,1.20
2019-05-25T01:19:59.330Z,1.40
2019-05-25T01:22:32.665Z,1.30
2019-05-25T01:25:06.135Z,1.00
2019-05-25T01:27:40.787Z,1.10
2019-05-25T01:30:14.103Z,1.07
2019-05-25T01:32:47.564Z,0.85
2019-05-25T01:35:20.870Z,1.47
2019-05-25T01:37:54.210Z,1.07
2019-05-25T01:40:28.586Z,1.10
2019-05-25T01:43:01.933Z,1.30
2019-05-25T01:45:35.242Z,1.10
2019-05-25T01:48:08.575Z,0.90
2019-05-25T01:50:41.891Z,1.25
2019-05-25T01:53:15.348Z,1.07
2019-05-25T01:55:48.657Z,0.82
2019-05-25T01:58:21.996Z,0.90
2019-05-25T02:00:55.303Z,1.00
2019-05-25T02:03:28.682Z,1.10
2019-05-25T02:06:01.970Z,1.27
2019-05-25T02:08:35.283Z,1.30
2019-05-25T02:11:08.580Z,1.20
2019-05-25T02:13:41.956Z,1.00
2019-05-25T02:16:15.267Z,1.27
2019-05-25T02:18:48.630Z,1.17
2019-05-25T02:21:21.941Z,1.35
2019-05-25T02:23:55.295Z,1.00
2019-05-25T02:26:28.609Z,1.02
2019-05-25T02:29:01.951Z,1.42
2019-05-25T02:31:35.243Z,1.15
2019-05-25T02:34:08.589Z,1.00
2019-05-25T02:36:41.886Z,1.10
2019-05-25T02:39:15.251Z,1.12
2019-05-25T02:41:48.606Z,1.37
2019-05-25T02:44:21.993Z,1.37
2019-05-25T02:46:55.289Z,1.07
2019-05-25T02:49:30.198Z,1.60
2019-05-25T02:52:03.487Z,1.02
2019-05-25T02:54:37.903Z,1.20
2019-05-25T02:57:12.265Z,1.07
2019-05-25T02:59:45.595Z,1.12
2019-05-25T03:02:18.943Z,1.20
2019-05-25T03:04:52.233Z,1.10
2019-05-25T03:07:25.554Z,1.40
2019-05-25T03:09:58.871Z,1.27
2019-05-25T03:12:32.230Z,0.90
2019-05-25T03:15:07.055Z,1.40
2019-05-25T03:17:40.524Z,1.10
2019-05-25T03:20:14.794Z,1.17
2019-05-25T03:22:48.833Z,1.57
2019-05-25T03:25:22.148Z,1.30
2019-05-25T03:27:55.493Z,1.07
2019-05-25T03:30:36.461Z,0.90
2019-05-25T03:33:09.783Z,1.05
2019-05-25T03:35:43.113Z,1.47
2019-05-25T03:38:16.449Z,1.12
2019-05-25T03:40:49.772Z,1.20
2019-05-25T03:43:23.112Z,1.55
2019-05-25T03:45:56.420Z,1.27
2019-05-25T03:48:29.790Z,1.40
2019-05-25T03:51:03.080Z,1.47
2019-05-25T03:53:37.496Z,1.15
2019-05-25T03:56:10.806Z,1.50
2019-05-25T03:58:44.131Z,1.27
2019-05-25T04:01:17.431Z,1.10
2019-05-25T04:03:50.752Z,1.02
2019-05-25T04:06:24.086Z,1.35
2019-05-25T04:08:57.209Z,1.32
2019-05-25T04:11:30.597Z,1.52
2019-05-25T04:14:03.937Z,1.17
2019-05-25T04:16:37.296Z,1.40
2019-05-25T04:19:10.599Z,1.52
2019-05-25T04:21:44.219Z,1.35
2019-05-25T04:24:17.523Z,1.70
2019-05-25T04:26:50.908Z,1.30
2019-05-25T04:29:24.232Z,1.60
2019-05-25T04:31:57.567Z,1.42
2019-05-25T04:34:30.863Z,1.22
2019-05-25T04:37:04.215Z,1.50
2019-05-25T04:39:37.533Z,1.40
2019-05-25T04:42:10.861Z,1.45
2019-05-25T04:44:44.192Z,1.40
2019-05-25T04:47:26.493Z,1.40
2019-05-25T04:49:52.626Z,1.60
2019-05-25T04:52:25.923Z,1.37
2019-05-25T04:54:59.262Z,1.35
2019-05-25T04:57:32.569Z,1.70
2019-05-25T05:00:06.479Z,1.50
2019-05-25T05:02:39.801Z,1.92
2019-05-25T05:05:13.391Z,1.70
2019-05-25T05:07:46.827Z,1.37
2019-05-25T05:10:20.120Z,1.70
2019-05-25T05:12:54.515Z,2.00
2019-05-25T05:15:27.870Z,1.40
2019-05-25T05:18:01.165Z,1.70
2019-05-25T05:20:34.588Z,1.57
2019-05-25T05:23:09.561Z,1.15
2019-05-25T05:25:42.902Z,1.20
2019-05-25T05:28:16.215Z,1.22
2019-05-25T05:30:49.546Z,1.30
2019-05-25T05:33:22.909Z,1.00
2019-05-25T05:35:56.245Z,1.07
2019-05-25T05:38:29.607Z,1.40
2019-05-25T05:41:03.084Z,1.30
2019-05-25T05:43:36.708Z,1.50
2019-05-25T05:46:09.999Z,1.40
2019-05-25T05:48:43.339Z,1.05
2019-05-25T05:51:19.070Z,1.20
2019-05-25T05:53:54.221Z,1.12
2019-05-25T05:56:27.640Z,1.22
2019-05-25T05:59:01.229Z,0.98
2019-05-25T06:01:34.586Z,0.90
2019-05-25T06:04:07.920Z,1.00
2019-05-25T06:06:41.219Z,0.95
2019-05-25T06:09:14.553Z,1.10
2019-05-25T06:11:47.904Z,1.10
2019-05-25T06:14:21.266Z,1.35
2019-05-25T06:16:54.588Z,1.37
2019-05-25T06:19:27.924Z,1.30
2019-05-25T06:22:01.236Z,0.70
2019-05-25T06:24:34.781Z,0.98
2019-05-25T06:27:08.123Z,1.07
2019-05-25T06:29:41.472Z,0.90
2019-05-25T06:32:14.874Z,1.50
2019-05-25T06:34:48.204Z,0.85
2019-05-25T06:37:22.502Z,1.12
2019-05-25T06:39:55.818Z,0.80
2019-05-25T06:42:29.347Z,1.02
2019-05-25T06:45:03.444Z,0.88
2019-05-25T06:47:36.962Z,1.00
2019-05-25T06:50:10.297Z,0.90
2019-05-25T06:52:43.605Z,0.93
2019-05-25T06:55:16.941Z,1.13
2019-05-25T06:57:50.248Z,1.50
2019-05-25T07:00:23.576Z,1.20
2019-05-25T07:02:56.905Z,1.10
2019-05-25T07:05:30.253Z,1.15
2019-05-25T07:08:03.382Z,1.10
2019-05-25T07:10:37.690Z,1.27
2019-05-25T07:13:11.010Z,1.05
2019-05-25T07:15:45.774Z,1.22
2019-05-25T07:18:20.086Z,1.45
2019-05-25T07:20:53.448Z,1.10
2019-05-25T07:23:28.415Z,0.88
2019-05-25T07:26:01.748Z,0.90
2019-05-25T07:28:35.062Z,1.15
2019-05-25T07:31:08.424Z,1.00
2019-05-25T07:33:41.727Z,0.95
2019-05-25T07:36:15.063Z,1.27
2019-05-25T07:38:48.381Z,1.25
2019-05-25T07:41:21.954Z,1.33
2019-05-25T07:43:55.301Z,0.90
2019-05-25T07:46:28.636Z,0.93
2019-05-25T07:49:01.981Z,1.10
2019-05-25T07:51:35.328Z,1.12
2019-05-25T07:54:08.699Z,1.10
2019-05-25T07:56:42.165Z,0.90
2019-05-25T07:59:15.483Z,1.22
2019-05-25T08:01:48.842Z,1.30
2019-05-25T08:04:22.196Z,0.88
2019-05-25T08:06:55.549Z,0.93
2019-05-25T08:09:28.923Z,0.90
2019-05-25T08:12:02.549Z,0.78
2019-05-25T08:14:36.754Z,0.90
2019-05-25T08:17:10.266Z,0.85
2019-05-25T08:19:43.690Z,1.05
2019-05-25T08:22:17.022Z,0.78
2019-05-25T08:24:50.521Z,0.68
2019-05-25T08:27:23.847Z,0.80
2019-05-25T08:29:57.191Z,1.00
2019-05-25T08:32:30.485Z,0.78
2019-05-25T08:35:05.426Z,0.60
2019-05-25T08:37:40.297Z,0.80
2019-05-25T08:40:13.661Z,0.82
2019-05-25T08:42:47.053Z,0.80
2019-05-25T08:45:20.417Z,0.75
2019-05-25T08:47:56.809Z,0.62
2019-05-25T08:50:37.690Z,0.80
2019-05-25T08:53:03.824Z,0.90
2019-05-25T08:55:37.184Z,0.75
2019-05-25T08:58:10.474Z,0.90
2019-05-25T09:00:44.308Z,1.37
2019-05-25T09:03:17.597Z,0.70
2019-05-25T09:05:50.938Z,0.90
2019-05-25T09:08:24.262Z,0.50
2019-05-25T09:10:57.601Z,0.85
2019-05-25T09:13:32.575Z,0.50
2019-05-25T09:16:05.914Z,0.80
2019-05-25T09:18:39.224Z,0.70
2019-05-25T09:21:12.582Z,0.85
2019-05-25T09:23:48.686Z,0.82
2019-05-25T09:26:20.983Z,0.75
2019-05-25T09:29:04.109Z,0.88
2019-05-25T09:31:30.136Z,0.67
2019-05-25T09:34:03.317Z,0.60
2019-05-25T09:36:36.634Z,0.60
2019-05-25T09:39:10.243Z,0.87
2019-05-25T09:41:43.558Z,0.70
2019-05-25T09:44:16.931Z,0.70
2019-05-25T09:46:50.234Z,0.53
2019-05-25T09:49:23.667Z,1.10
2019-05-25T09:51:56.993Z,0.70
2019-05-25T09:54:30.309Z,0.65
2019-05-25T09:57:03.643Z,0.90
2019-05-25T09:59:36.981Z,0.70
2019-05-25T10:02:10.292Z,0.70
2019-05-25T10:04:43.631Z,0.75
2019-05-25T10:07:17.102Z,0.80
2019-05-25T10:09:50.509Z,0.60
2019-05-25T10:12:23.884Z,0.82
2019-05-25T10:14:57.240Z,0.45
2019-05-25T10:17:30.553Z,0.50
2019-05-25T10:20:05.169Z,0.70
2019-05-25T10:22:39.608Z,0.70
2019-05-25T10:25:13.437Z,0.70
2019-05-25T10:27:46.761Z,0.75
2019-05-25T10:30:20.102Z,0.70
2019-05-25T10:32:54.636Z,0.70
2019-05-25T10:35:27.999Z,0.60
2019-05-25T10:38:01.333Z,0.90
2019-05-25T10:40:34.672Z,0.88
2019-05-25T10:43:07.975Z,0.75
2019-05-25T10:45:41.315Z,0.80
2019-05-25T10:48:14.613Z,0.75
2019-05-25T10:50:49.528Z,0.75
2019-05-25T10:53:22.826Z,0.70
2019-05-25T10:55:56.140Z,1.12
2019-05-25T10:58:29.456Z,0.53
2019-05-25T11:01:02.810Z,0.80
2019-05-25T11:03:36.111Z,1.10
2019-05-25T11:06:09.476Z,0.70
2019-05-25T11:08:42.789Z,0.60
2019-05-25T11:11:15.936Z,0.60
2019-05-25T11:13:49.244Z,1.00
2019-05-25T11:16:22.597Z,0.70
2019-05-25T11:18:55.943Z,0.93
2019-05-25T11:21:29.277Z,0.70
2019-05-25T11:24:02.662Z,0.78
2019-05-25T11:26:36.169Z,0.62
2019-05-25T11:29:09.479Z,0.82
2019-05-25T11:31:42.854Z,0.65
2019-05-25T11:34:16.053Z,1.00
2019-05-25T11:36:49.433Z,1.20
2019-05-25T11:39:22.737Z,0.90
2019-05-25T11:41:56.090Z,1.50
2019-05-25T11:44:29.443Z,1.10
2019-05-25T11:47:02.809Z,1.90
2019-05-25T11:49:36.407Z,1.50
2019-05-25T11:52:09.758Z,1.45
2019-05-25T11:54:43.075Z,1.60
2019-05-25T11:57:16.417Z,1.75
2019-05-25T11:59:49.703Z,1.20
2019-05-25T12:02:23.121Z,1.20
2019-05-25T12:04:56.445Z,2.00
2019-05-25T12:07:29.775Z,1.00
2019-05-25T12:10:03.345Z,1.20
2019-05-25T12:12:37.727Z,1.52
2019-05-25T12:15:11.034Z,1.17
2019-05-25T12:17:44.341Z,1.12
2019-05-25T12:20:17.728Z,1.20
2019-05-25T12:22:51.059Z,1.32
2019-05-25T12:25:24.374Z,1.07
2019-05-25T12:27:57.917Z,1.10
2019-05-25T12:30:40.263Z,0.85
2019-05-25T12:33:06.244Z,0.88
2019-05-25T12:35:39.957Z,1.30
2019-05-25T12:38:13.311Z,0.98
2019-05-25T12:40:53.760Z,0.68
2019-05-25T12:43:21.777Z,0.80
2019-05-25T12:45:55.738Z,0.70
2019-05-25T12:48:29.178Z,0.55
2019-05-25T12:51:02.491Z,1.00
2019-05-25T12:53:35.839Z,0.60
2019-05-25T12:56:12.126Z,0.50
2019-05-25T12:58:46.107Z,0.80
2019-05-25T13:01:19.410Z,0.85
2019-05-25T13:03:53.870Z,1.10
2019-05-25T13:06:27.184Z,0.95
2019-05-25T13:09:00.534Z,0.90
2019-05-25T13:11:33.884Z,1.00
2019-05-25T13:14:14.597Z,0.88
2019-05-25T13:16:42.401Z,1.00
2019-05-25T13:19:15.781Z,0.70
2019-05-25T13:21:49.158Z,0.93
2019-05-25T13:24:22.521Z,0.85
2019-05-25T13:26:55.838Z,1.25
2019-05-25T13:29:29.172Z,0.80
2019-05-25T13:32:02.469Z,0.80
2019-05-25T13:34:35.808Z,0.82
2019-05-25T13:37:09.109Z,0.80
2019-05-25T13:39:42.445Z,0.90
2019-05-25T13:42:16.519Z,0.78
2019-05-25T13:44:49.941Z,1.05
2019-05-25T13:47:24.917Z,0.88
2019-05-25T13:49:58.255Z,0.70
2019-05-25T13:52:31.566Z,1.10
2019-05-25T13:55:05.631Z,1.17
2019-05-25T13:57:39.036Z,0.70
2019-05-25T14:00:12.452Z,0.70
2019-05-25T14:02:47.085Z,0.93
2019-05-25T14:05:20.452Z,0.80
2019-05-25T14:07:53.799Z,0.70
2019-05-25T14:10:27.133Z,0.75
2019-05-25T14:13:00.537Z,0.80
2019-05-25T14:15:33.880Z,0.90
2019-05-25T14:18:07.176Z,0.72
2019-05-25T14:20:40.675Z,0.90
2019-05-25T14:23:13.988Z,0.70
2019-05-25T14:25:47.331Z,0.87
2019-05-25T14:28:22.392Z,0.82
2019-05-25T14:30:55.826Z,0.42
2019-05-25T14:33:30.216Z,0.80
2019-05-25T14:36:03.602Z,0.62
2019-05-25T14:38:36.924Z,0.50
2019-05-25T14:41:10.238Z,0.78
2019-05-25T14:43:43.595Z,0.70
2019-05-25T14:46:27.473Z,0.60
2019-05-25T14:48:51.944Z,0.70
2019-05-25T14:51:25.273Z,0.80
2019-05-25T14:53:58.620Z,0.80
2019-05-25T14:56:31.959Z,0.72
2019-05-25T14:59:05.335Z,0.70
2019-05-25T15:01:38.657Z,0.90
2019-05-25T15:04:12.205Z,0.98
2019-05-25T15:06:45.506Z,0.65
2019-05-25T15:09:19.877Z,0.68
2019-05-25T15:11:54.114Z,0.62
2019-05-25T15:14:27.592Z,0.65
2019-05-25T15:17:01.866Z,0.60
2019-05-25T15:19:35.245Z,0.60
2019-05-25T15:22:08.590Z,0.70
2019-05-25T15:24:41.991Z,0.80
2019-05-25T15:27:15.248Z,0.68
2019-05-25T15:29:48.610Z,0.53
2019-05-25T15:32:22.039Z,0.70
2019-05-25T15:34:55.542Z,0.65
2019-05-25T15:37:30.470Z,1.00
2019-05-25T15:40:07.049Z,0.72
2019-05-25T15:42:40.591Z,0.72
2019-05-25T15:45:13.870Z,0.80
2019-05-25T15:47:48.822Z,0.80
2019-05-25T15:50:22.146Z,0.80
2019-05-25T15:52:56.837Z,0.80
2019-05-25T15:55:30.368Z,0.90
2019-05-25T15:58:03.723Z,0.80
2019-05-25T16:00:50.452Z,0.60
2019-05-25T16:03:23.876Z,0.75
2019-05-25T16:05:57.178Z,0.72
2019-05-25T16:08:30.518Z,0.80
2019-05-25T16:11:03.849Z,0.80
2019-05-25T16:13:37.155Z,0.68
2019-05-25T16:16:10.503Z,1.10
2019-05-25T16:18:43.813Z,0.88
2019-05-25T16:21:17.289Z,0.80
2019-05-25T16:23:50.609Z,0.70
2019-05-25T16:26:23.950Z,0.90
2019-05-25T16:28:57.262Z,0.88
2019-05-25T16:31:30.645Z,0.90
2019-05-25T16:34:03.949Z,0.60
2019-05-25T16:36:37.305Z,0.62
2019-05-25T16:39:10.763Z,0.90
2019-05-25T16:41:44.198Z,1.00
2019-05-25T16:44:17.509Z,0.60
2019-05-25T16:46:50.923Z,0.65
2019-05-25T16:49:24.229Z,0.70
2019-05-25T16:51:57.569Z,0.65
2019-05-25T16:54:30.947Z,0.98
2019-05-25T16:57:04.331Z,0.82
2019-05-25T16:59:37.638Z,0.70
2019-05-25T17:02:10.991Z,0.62
2019-05-25T17:04:44.346Z,0.53
2019-05-25T17:07:17.693Z,0.55
2019-05-25T17:09:50.995Z,0.80
2019-05-25T17:12:24.368Z,0.50
2019-05-25T17:14:57.692Z,0.57
2019-05-25T17:17:31.102Z,0.55
2019-05-25T17:20:04.977Z,0.50
2019-05-25T17:22:38.386Z,0.80
2019-05-25T17:25:11.902Z,0.80
2019-05-25T17:27:45.239Z,0.78
2019-05-25T17:30:21.839Z,0.60
2019-05-25T17:32:55.430Z,0.80
2019-05-25T17:35:29.059Z,0.68
2019-05-25T17:38:02.598Z,0.60
2019-05-25T17:40:35.956Z,0.90
2019-05-25T17:43:09.367Z,1.15
2019-05-25T17:45:42.680Z,0.98
2019-05-25T17:48:16.930Z,1.10
2019-05-25T17:50:50.400Z,1.17
2019-05-25T17:53:23.735Z,1.12
2019-05-25T17:55:57.133Z,1.70
2019-05-25T17:58:30.512Z,1.52
2019-05-25T18:01:03.827Z,1.40
2019-05-25T18:03:37.279Z,2.00
2019-05-25T18:06:10.649Z,1.62
2019-05-25T18:08:44.001Z,1.20
2019-05-25T18:11:17.336Z,1.40
2019-05-25T18:13:52.149Z,1.00
2019-05-25T18:16:25.544Z,1.40
2019-05-25T18:18:58.896Z,0.98
2019-05-25T18:21:32.056Z,0.93
2019-05-25T18:24:05.513Z,1.10
2019-05-25T18:26:39.019Z,1.65
2019-05-25T18:29:12.343Z,1.00
2019-05-25T18:31:45.786Z,1.20
2019-05-25T18:34:22.034Z,1.00
2019-05-25T18:36:54.621Z,0.83
2019-05-25T18:39:27.819Z,1.00
2019-05-25T18:42:01.228Z,1.40
2019-05-25T18:44:34.555Z,0.93
2019-05-25T18:47:07.987Z,1.25
2019-05-25T18:49:41.285Z,1.12
2019-05-25T18:52:14.652Z,1.25
2019-05-25T18:54:48.017Z,1.15
2019-05-25T18:57:21.428Z,1.07
2019-05-25T18:59:54.809Z,1.50
2019-05-25T19:02:28.249Z,1.22
2019-05-25T19:05:01.929Z,1.57
2019-05-25T19:07:35.670Z,1.10
2019-05-25T19:10:09.971Z,1.12
2019-05-25T19:12:43.320Z,1.22
2019-05-25T19:15:16.816Z,1.07
2019-05-25T19:17:50.394Z,0.80
2019-05-25T19:20:23.730Z,1.10
2019-05-25T19:22:57.060Z,1.20
2019-05-25T19:25:30.383Z,1.05
2019-05-25T19:28:03.746Z,1.15
2019-05-25T19:30:37.049Z,1.00
2019-05-25T19:33:10.503Z,1.15
2019-05-25T19:35:43.804Z,1.00
2019-05-25T19:38:17.161Z,1.10
2019-05-25T19:40:50.487Z,0.80
2019-05-25T19:43:23.866Z,1.10
2019-05-25T19:45:57.171Z,1.10
2019-05-25T19:48:32.089Z,1.25
2019-05-25T19:51:05.414Z,0.95
2019-05-25T19:53:38.764Z,0.90
2019-05-25T19:56:12.126Z,0.78
2019-05-25T19:58:45.434Z,1.05
2019-05-25T20:01:18.792Z,1.20
2019-05-25T20:03:52.086Z,0.70
2019-05-25T20:06:25.453Z,0.82
2019-05-25T20:08:58.814Z,1.10
2019-05-25T20:11:32.135Z,1.40
2019-05-25T20:14:05.914Z,1.55
2019-05-25T20:16:39.411Z,1.60
2019-05-25T20:19:12.767Z,1.22
2019-05-25T20:21:46.106Z,1.47
2019-05-25T20:24:19.464Z,1.07
2019-05-25T20:26:52.801Z,1.98
2019-05-25T20:29:26.240Z,1.62
2019-05-25T20:32:00.206Z,1.20
2019-05-25T20:34:33.836Z,1.22
2019-05-25T20:37:07.142Z,1.20
2019-05-25T20:39:40.503Z,1.22
2019-05-25T20:42:15.160Z,1.25
2019-05-25T20:44:48.674Z,0.98
2019-05-25T20:47:22.250Z,1.17
2019-05-25T20:49:55.580Z,1.20
2019-05-25T20:52:28.971Z,1.07
2019-05-25T20:55:02.631Z,1.07
2019-05-25T20:57:36.032Z,0.93
2019-05-25T21:00:09.337Z,0.85
2019-05-25T21:02:42.952Z,0.90
2019-05-25T21:05:16.281Z,1.20
2019-05-25T21:07:49.593Z,1.10
2019-05-25T21:10:22.942Z,1.00
2019-05-25T21:12:56.508Z,0.60
2019-05-25T21:15:29.827Z,1.10
2019-05-25T21:18:03.190Z,0.80
2019-05-25T21:20:36.510Z,0.82
2019-05-25T21:23:09.853Z,1.22
2019-05-25T21:25:43.443Z,0.80
2019-05-25T21:28:16.785Z,0.88
2019-05-25T21:30:50.125Z,1.10
2019-05-25T21:33:23.582Z,0.90
2019-05-25T21:36:07.669Z,0.75
2019-05-25T21:38:31.952Z,0.57
2019-05-25T21:41:05.287Z,0.90
2019-05-25T21:43:38.638Z,0.70
2019-05-25T21:46:11.961Z,1.00
2019-05-25T21:48:45.291Z,0.70
2019-05-25T21:51:18.650Z,0.82
2019-05-25T21:53:51.978Z,0.72
2019-05-25T21:56:25.320Z,1.00
2019-05-25T21:58:58.703Z,1.02
2019-05-25T22:01:32.007Z,0.45
2019-05-25T22:04:06.064Z,0.83
2019-05-25T22:06:40.139Z,0.93
2019-05-25T22:09:13.505Z,0.78
2019-05-25T22:11:46.802Z,0.88
2019-05-25T22:14:20.145Z,1.07
2019-05-25T22:16:53.641Z,1.00
2019-05-25T22:19:27.002Z,1.10
2019-05-25T22:22:00.383Z,1.00
2019-05-25T22:24:33.746Z,1.10
2019-05-25T22:27:07.077Z,1.00
2019-05-25T22:29:40.394Z,0.97
2019-05-25T22:32:13.763Z,0.70
2019-05-25T22:34:47.139Z,0.80
2019-05-25T22:37:20.461Z,0.72
2019-05-25T22:39:53.625Z,1.10
2019-05-25T22:42:26.951Z,0.88
2019-05-25T22:45:00.289Z,1.10
2019-05-25T22:47:33.616Z,1.10
2019-05-25T22:50:08.672Z,1.20
2019-05-25T22:52:41.812Z,1.20
2019-05-25T22:55:15.162Z,1.20
2019-05-25T22:57:48.471Z,1.30
2019-05-25T23:00:21.798Z,0.95
2019-05-25T23:02:55.333Z,1.32
2019-05-25T23:05:28.673Z,1.17
2019-05-25T23:08:02.135Z,1.50
2019-05-25T23:10:35.515Z,1.35
2019-05-25T23:13:08.821Z,1.22
2019-05-25T23:15:42.193Z,1.32
2019-05-25T23:18:15.501Z,1.67
2019-05-25T23:20:48.923Z,1.10
2019-05-25T23:23:23.536Z,1.20
2019-05-25T23:25:56.892Z,1.37
2019-05-25T23:28:30.360Z,1.30
2019-05-25T23:31:03.702Z,1.62
2019-05-25T23:33:37.025Z,1.72
2019-05-25T23:36:11.963Z,1.60
2019-05-25T23:38:45.263Z,1.52
2019-05-25T23:41:18.639Z,1.10
2019-05-25T23:43:51.987Z,1.85
2019-05-25T23:46:25.340Z,1.55
2019-05-25T23:48:58.670Z,1.60
2019-05-25T23:51:31.982Z,1.80
2019-05-25T23:54:05.329Z,1.30
2019-05-25T23:56:38.628Z,1.50
2019-05-25T23:59:13.556Z,1.70
